aviador You're here:

RKTU Decoded Metar

CHONGJU in KOREA
Report Time2017-07-23 00:00:00
UTC Time2017-07-23 00:49:25
Flight Rules mvfr MVFR
Wind190° at 04 kt
W.Decomp.*RWY 24: 3.0 kt HW 2.7 kt LCW
W.Rank190° ranks 33
Current wind is above 190° avg. (2.9)
Visibility8000 m
Phenomena:Light Rain
Clouds:Broken 015 Hf
Overcast 030 Hf
Expected CloudBase > 800 ft AGL from Temp-Dew spread
Ceiling1,500 ft
Temp26°C (ISA +11)
Dew Point24°C (89% RH)
QNH1006 hPa
Density Alt2,165 ft
Elevation217 ft
Report Wrong Elevation
Raw Report
METAR RKTU 230000Z 19004KT 8000 -RA BKN015 OVC030 26/24 Q1006 NOSIG=####018001487####
SAUS20 KNKA 230017

Extra information for RKTU:More info

Metar Taf Metar & Taf Last 4 Metars F.Rules Stats Wind Profile Meteogram Temp Stats Airport Information Weather charts Add Link Nearby VenuesMetar ALERT Operation Metar Decoded Social comments